createdAt,value
2022-08-03T00:01:20.254Z,101201.94
2022-08-03T00:02:52.077Z,101199.38
2022-08-03T00:04:33.634Z,101191.59
2022-08-03T00:06:06.321Z,101199.22
2022-08-03T00:07:38.709Z,101203.88
2022-08-03T00:09:11.225Z,101198.91
2022-08-03T00:10:43.074Z,101198.31
2022-08-03T00:12:15.038Z,101191.53
2022-08-03T00:13:47.167Z,101196.31
2022-08-03T00:15:21.531Z,101192.19
2022-08-03T00:16:55.094Z,101195.13
2022-08-03T00:18:26.870Z,101191.59
2022-08-03T00:19:58.569Z,101187.91
2022-08-03T00:21:30.357Z,101187.19
2022-08-03T00:23:02.176Z,101186.50
2022-08-03T00:24:36.583Z,101186.03
2022-08-03T00:26:08.299Z,101190.81
2022-08-03T00:27:40.073Z,101191.09
2022-08-03T00:29:11.782Z,101189.69
2022-08-03T00:30:43.522Z,101188.94
2022-08-03T00:32:17.976Z,101190.91
2022-08-03T00:33:59.512Z,101184.94
2022-08-03T00:35:50.270Z,101185.22
2022-08-03T00:37:22.977Z,101184.75
2022-08-03T00:39:12.783Z,101177.06
2022-08-03T00:40:44.538Z,101186.09
2022-08-03T00:42:16.567Z,101181.97
2022-08-03T00:43:48.633Z,101174.03
2022-08-03T00:45:24.236Z,101174.31
2022-08-03T00:46:55.947Z,101174.44
2022-08-03T00:48:33.114Z,101171.16
2022-08-03T00:50:06.525Z,101171.41
2022-08-03T00:51:38.546Z,101176.94
2022-08-03T00:53:13.426Z,101175.22
2022-08-03T00:54:45.213Z,101172.81
2022-08-03T00:56:18.155Z,101175.75
2022-08-03T00:57:50.501Z,101169.66
2022-08-03T00:59:22.837Z,101168.94
2022-08-03T01:00:54.749Z,101170.03
2022-08-03T01:02:27.073Z,101174.69
2022-08-03T01:04:00.249Z,101168.47
2022-08-03T01:05:40.209Z,101162.41
2022-08-03T01:07:17.808Z,101166.91
2022-08-03T01:08:58.509Z,101170.69
2022-08-03T01:10:39.757Z,101160.94
2022-08-03T01:12:18.534Z,101162.91
2022-08-03T01:14:03.856Z,101163.03
2022-08-03T01:15:58.578Z,101166.69
2022-08-03T01:17:36.751Z,101163.88
2022-08-03T01:19:31.802Z,101164.00
2022-08-03T01:21:10.535Z,101163.41
2022-08-03T01:23:00.664Z,101160.03
2022-08-03T01:24:41.447Z,101162.72
2022-08-03T01:26:37.887Z,101158.03
2022-08-03T01:28:28.346Z,101161.84
2022-08-03T01:30:04.513Z,101163.53
2022-08-03T01:33:00.127Z,101160.72
2022-08-03T01:33:37.095Z,101167.78
2022-08-03T01:35:12.635Z,101165.09
2022-08-03T01:36:51.216Z,101170.59
2022-08-03T01:38:26.091Z,101166.22
2022-08-03T01:39:59.652Z,101167.91
2022-08-03T01:41:34.167Z,101165.63
2022-08-03T01:43:08.445Z,101163.94
2022-08-03T01:44:42.649Z,101167.59
2022-08-03T01:46:17.488Z,101166.75
2022-08-03T01:47:50.295Z,101171.25
2022-08-03T01:49:22.591Z,101163.59
2022-08-03T01:50:56.774Z,101164.94
2022-08-03T01:52:30.565Z,101158.72
2022-08-03T01:54:04.580Z,101153.22
2022-08-03T01:55:38.861Z,101155.91
2022-08-03T01:57:11.094Z,101151.34
2022-08-03T01:58:45.496Z,101151.50
2022-08-03T02:00:19.186Z,101161.41
2022-08-03T02:02:15.640Z,101158.72
2022-08-03T02:04:00.050Z,101159.56
2022-08-03T02:05:34.055Z,101157.56
2022-08-03T02:07:06.936Z,101160.41
2022-08-03T02:08:40.575Z,101155.06
2022-08-03T02:10:16.062Z,101158.44
2022-08-03T02:11:56.609Z,101161.00
2022-08-03T02:13:30.511Z,101153.22
2022-08-03T02:15:03.080Z,101158.59
2022-08-03T02:16:36.265Z,101163.09
2022-08-03T02:18:11.312Z,101159.56
2022-08-03T02:19:44.638Z,101160.91
2022-08-03T02:21:55.764Z,101162.13
2022-08-03T02:23:08.757Z,101161.69
2022-08-03T02:24:41.022Z,101161.69
2022-08-03T02:26:17.372Z,101159.69
2022-08-03T02:27:53.038Z,101160.84
2022-08-03T02:29:40.243Z,101167.19
2022-08-03T02:31:15.693Z,101162.06
2022-08-03T02:32:53.236Z,101161.56
2022-08-03T02:34:29.547Z,101161.81
2022-08-03T02:36:03.123Z,101167.19
2022-08-03T02:37:42.668Z,101156.44
2022-08-03T02:39:20.670Z,101152.78
2022-08-03T02:40:56.216Z,101156.22
2022-08-03T02:42:29.850Z,101147.44
2022-08-03T02:44:07.570Z,101143.91
2022-08-03T02:45:45.613Z,101148.41
2022-08-03T02:47:21.338Z,101145.16
2022-08-03T02:48:55.756Z,101141.00
2022-08-03T02:50:31.126Z,101138.81
2022-08-03T02:52:04.691Z,101146.41
2022-08-03T02:53:37.202Z,101152.97
2022-08-03T02:55:11.807Z,101149.81
2022-08-03T02:56:45.330Z,101151.91
2022-08-03T02:58:21.195Z,101148.63
2022-08-03T02:59:54.153Z,101148.00
2022-08-03T03:01:27.859Z,101145.31
2022-08-03T03:03:01.691Z,101148.88
2022-08-03T03:04:36.244Z,101151.41
2022-08-03T03:06:11.257Z,101150.56
2022-08-03T03:07:51.351Z,101150.69
2022-08-03T03:09:25.025Z,101154.31
2022-08-03T03:11:15.071Z,101153.47
2022-08-03T03:12:48.221Z,101153.56
2022-08-03T03:14:33.190Z,101155.53
2022-08-03T03:16:06.676Z,101154.22
2022-08-03T03:17:39.324Z,101157.00
2022-08-03T03:19:13.059Z,101159.19
2022-08-03T03:20:45.837Z,101155.53
2022-08-03T03:22:20.090Z,101155.53
2022-08-03T03:23:52.829Z,101153.81
2022-08-03T03:25:24.823Z,101157.38
2022-08-03T03:26:57.676Z,101160.16
2022-08-03T03:28:30.823Z,101155.53
2022-08-03T03:30:02.933Z,101157.25
2022-08-03T03:31:35.420Z,101154.69
2022-08-03T03:33:07.602Z,101159.31
2022-08-03T03:34:39.665Z,101159.31
2022-08-03T03:36:11.437Z,101161.41
2022-08-03T03:37:44.574Z,101159.81
2022-08-03T03:39:16.301Z,101153.72
2022-08-03T03:40:48.569Z,101156.28
2022-08-03T03:42:20.590Z,101161.63
2022-08-03T03:43:52.341Z,101153.59
2022-08-03T03:45:24.498Z,101153.72
2022-08-03T03:46:57.736Z,101160.16
2022-08-03T03:48:29.559Z,101158.47
2022-08-03T03:50:05.579Z,101161.25
2022-08-03T03:51:37.406Z,101171.00
2022-08-03T03:53:11.948Z,101163.09
2022-08-03T03:54:45.106Z,101159.56
2022-08-03T03:56:18.137Z,101160.53
2022-08-03T03:57:49.823Z,101158.81
2022-08-03T03:59:21.497Z,101159.78
2022-08-03T04:00:53.879Z,101157.25
2022-08-03T04:02:25.742Z,101164.31
2022-08-03T04:03:57.568Z,101162.63
2022-08-03T04:05:48.087Z,101167.00
2022-08-03T04:07:38.830Z,101169.91
2022-08-03T04:09:30.896Z,101166.38
2022-08-03T04:11:11.455Z,101168.31
2022-08-03T04:12:50.042Z,101164.19
2022-08-03T04:14:27.032Z,101151.97
2022-08-03T04:15:59.907Z,101152.25
2022-08-03T04:17:32.718Z,101159.56
2022-08-03T04:19:08.866Z,101166.84
2022-08-03T04:20:45.519Z,101169.88
2022-08-03T04:22:23.465Z,101158.41
2022-08-03T04:23:58.964Z,101162.22
2022-08-03T04:25:37.026Z,101164.16
2022-08-03T04:27:13.050Z,101171.44
2022-08-03T04:28:46.509Z,101166.31
2022-08-03T04:30:19.212Z,101172.53
2022-08-03T04:31:54.388Z,101171.56
2022-08-03T04:33:29.549Z,101175.09
2022-08-03T04:35:01.585Z,101174.25
2022-08-03T04:36:38.248Z,101168.78
2022-08-03T04:38:14.341Z,101174.97
2022-08-03T04:39:49.212Z,101169.50
2022-08-03T04:41:25.631Z,101172.19
2022-08-03T04:42:59.457Z,101171.34
2022-08-03T04:44:35.694Z,101175.72
2022-08-03T04:46:09.131Z,101181.94
2022-08-03T04:47:42.243Z,101166.72
2022-08-03T04:49:14.304Z,101164.91
2022-08-03T04:50:47.548Z,101173.75
2022-08-03T04:52:19.365Z,101173.75
2022-08-03T04:53:51.122Z,101175.47
2022-08-03T04:55:26.901Z,101173.75
2022-08-03T04:56:59.958Z,101183.66
2022-08-03T04:58:31.640Z,101179.09
2022-08-03T05:00:05.656Z,101173.75
2022-08-03T05:01:37.953Z,101177.28
2022-08-03T05:03:20.105Z,101177.28
2022-08-03T05:04:56.254Z,101176.19
2022-08-03T05:06:28.025Z,101184.00
2022-08-03T05:08:00.739Z,101185.72
2022-08-03T05:09:52.669Z,101183.78
2022-08-03T05:11:24.885Z,101188.16
2022-08-03T05:12:57.939Z,101184.50
2022-08-03T05:14:29.622Z,101183.53
2022-08-03T05:16:02.041Z,101190.59
2022-08-03T05:17:34.136Z,101186.09
2022-08-03T05:19:05.956Z,101189.50
2022-08-03T05:20:38.806Z,101192.06
2022-08-03T05:22:10.565Z,101186.59
2022-08-03T05:23:42.475Z,101189.16
2022-08-03T05:25:17.334Z,101189.16
2022-08-03T05:26:52.464Z,101193.66
2022-08-03T05:28:25.576Z,101188.16
2022-08-03T05:30:29.651Z,101189.88
2022-08-03T05:31:49.126Z,101191.34
2022-08-03T05:33:20.814Z,101190.28
2022-08-03T05:34:52.617Z,101181.22
2022-08-03T05:36:24.378Z,101183.09
2022-08-03T05:37:56.139Z,101189.16
2022-08-03T05:39:27.882Z,101191.59
2022-08-03T05:41:20.228Z,101186.22
2022-08-03T05:42:51.385Z,101179.06
2022-08-03T05:44:25.536Z,101178.94
2022-08-03T05:46:12.953Z,101185.16
2022-08-03T05:47:45.685Z,101189.53
2022-08-03T05:49:17.443Z,101187.59
2022-08-03T05:50:49.238Z,101183.81
2022-08-03T05:52:20.958Z,101182.56
2022-08-03T05:53:53.073Z,101182.22
2022-08-03T05:55:25.414Z,101178.56
2022-08-03T05:56:57.269Z,101174.81
2022-08-03T05:58:29.902Z,101187.00
2022-08-03T06:00:05.906Z,101177.69
2022-08-03T06:01:43.298Z,101179.09
2022-08-03T06:03:15.072Z,101180.41
2022-08-03T06:04:46.987Z,101181.00
2022-08-03T06:06:19.120Z,101180.78
2022-08-03T06:07:50.812Z,101186.63
2022-08-03T06:09:22.490Z,101176.47
2022-08-03T06:11:03.716Z,101181.34
2022-08-03T06:12:36.203Z,101191.84
2022-08-03T06:14:08.181Z,101185.38
2022-08-03T06:15:41.881Z,101192.06
2022-08-03T06:17:13.603Z,101187.31
2022-08-03T06:18:46.983Z,101190.59
2022-08-03T06:20:19.963Z,101192.06
2022-08-03T06:21:51.685Z,101190.56
2022-08-03T06:23:25.353Z,101179.44
2022-08-03T06:25:15.106Z,101185.91
2022-08-03T06:26:46.818Z,101191.75
2022-08-03T06:28:51.343Z,101185.72
2022-08-03T06:30:12.400Z,101195.38
2022-08-03T06:31:45.461Z,101199.50
2022-08-03T06:33:17.328Z,101194.63
2022-08-03T06:34:49.107Z,101193.09
2022-08-03T06:36:20.881Z,101197.25
2022-08-03T06:37:52.651Z,101190.63
2022-08-03T06:39:24.372Z,101198.41
2022-08-03T06:40:56.670Z,101192.78
2022-08-03T06:42:28.358Z,101200.78
2022-08-03T06:44:03.984Z,101194.63
2022-08-03T06:45:36.353Z,101197.28
2022-08-03T06:47:09.663Z,101195.63
2022-08-03T06:48:41.393Z,101196.81
2022-08-03T06:50:17.822Z,101199.78
2022-08-03T06:52:05.741Z,101194.03
2022-08-03T06:53:38.629Z,101197.31
2022-08-03T06:55:10.330Z,101199.84
2022-08-03T06:56:42.171Z,101197.59
2022-08-03T06:58:13.873Z,101196.94
2022-08-03T07:00:06.389Z,101201.50
2022-08-03T07:01:37.340Z,101209.66
2022-08-03T07:03:10.434Z,101203.31
2022-08-03T07:04:42.185Z,101199.09
2022-08-03T07:06:13.954Z,101209.88
2022-08-03T07:07:46.074Z,101197.41
2022-08-03T07:09:17.835Z,101202.25
2022-08-03T07:10:49.632Z,101197.31
2022-08-03T07:12:21.337Z,101205.25
2022-08-03T07:13:53.113Z,101204.69
2022-08-03T07:15:54.095Z,101201.47
2022-08-03T07:17:16.857Z,101214.19
2022-08-03T07:18:49.913Z,101209.25
2022-08-03T07:20:21.639Z,101212.09
2022-08-03T07:21:53.567Z,101209.69
2022-08-03T07:23:25.618Z,101206.97
2022-08-03T07:24:57.487Z,101214.78
2022-08-03T07:26:29.169Z,101217.63
2022-08-03T07:28:00.885Z,101218.88
2022-08-03T07:29:34.646Z,101216.47
2022-08-03T07:31:06.498Z,101212.06
2022-08-03T07:32:49.730Z,101214.38
2022-08-03T07:34:23.613Z,101218.19
2022-08-03T07:35:55.287Z,101215.78
2022-08-03T07:37:27.018Z,101216.91
2022-08-03T07:38:58.739Z,101218.03
2022-08-03T07:40:32.006Z,101207.25
2022-08-03T07:42:04.313Z,101219.19
2022-08-03T07:43:36.021Z,101213.63
2022-08-03T07:45:09.386Z,101219.47
2022-08-03T07:46:48.623Z,101219.84
2022-08-03T07:48:20.478Z,101213.03
2022-08-03T07:49:53.688Z,101208.66
2022-08-03T07:51:25.539Z,101213.03
2022-08-03T07:52:58.075Z,101213.28
2022-08-03T07:54:29.795Z,101211.59
2022-08-03T07:56:01.619Z,101215.38
2022-08-03T07:57:37.757Z,101212.94
2022-08-03T07:59:09.654Z,101208.13
2022-08-03T08:00:42.262Z,101203.25
2022-08-03T08:02:14.907Z,101205.38
2022-08-03T08:03:53.238Z,101209.38
2022-08-03T08:05:27.933Z,101202.91
2022-08-03T08:06:59.660Z,101205.53
2022-08-03T08:08:31.573Z,101201.09
2022-08-03T08:10:04.584Z,101198.34
2022-08-03T08:11:39.988Z,101198.75
2022-08-03T08:13:11.951Z,101202.38
2022-08-03T08:14:46.602Z,101198.22
2022-08-03T08:16:18.305Z,101196.06
2022-08-03T08:17:51.975Z,101200.03
2022-08-03T08:19:23.714Z,101196.88
2022-08-03T08:21:01.624Z,101197.38
2022-08-03T08:22:33.388Z,101196.06
2022-08-03T08:24:10.941Z,101189.91
2022-08-03T08:25:50.755Z,101197.53
2022-08-03T08:27:22.444Z,101200.22
2022-08-03T08:28:54.148Z,101190.66
2022-08-03T08:30:26.409Z,101191.06
2022-08-03T08:32:00.955Z,101192.41
2022-08-03T08:34:01.451Z,101202.78
2022-08-03T08:35:26.515Z,101196.59
2022-08-03T08:36:59.634Z,101196.69
2022-08-03T08:38:31.352Z,101194.50
2022-08-03T08:40:04.017Z,101192.53
2022-08-03T08:41:35.813Z,101190.75
2022-08-03T08:43:07.699Z,101188.47
2022-08-03T08:44:39.627Z,101188.19
2022-08-03T08:46:23.395Z,101192.31
2022-08-03T08:48:03.442Z,101192.03
2022-08-03T08:49:40.259Z,101199.53
2022-08-03T08:51:13.467Z,101189.72
2022-08-03T08:52:48.891Z,101184.81
2022-08-03T08:54:22.426Z,101189.72
2022-08-03T08:55:58.840Z,101182.44
2022-08-03T08:57:42.686Z,101186.00
2022-08-03T08:59:15.186Z,101192.94
2022-08-03T09:00:48.386Z,101182.81
2022-08-03T09:02:20.492Z,101191.13
2022-08-03T09:03:54.050Z,101182.34
2022-08-03T09:05:54.659Z,101183.72
2022-08-03T09:07:29.181Z,101189.44
2022-08-03T09:09:02.600Z,101192.00
2022-08-03T09:10:34.798Z,101182.69
2022-08-03T09:12:35.423Z,101178.69
2022-08-03T09:14:00.074Z,101188.34
2022-08-03T09:15:33.252Z,101181.41
2022-08-03T09:17:05.164Z,101185.63
2022-08-03T09:18:36.929Z,101184.47
2022-08-03T09:20:09.872Z,101190.22
2022-08-03T09:21:41.760Z,101187.00
2022-08-03T09:23:59.616Z,101187.22
2022-08-03T09:25:23.726Z,101193.13
2022-08-03T09:26:56.219Z,101189.06
2022-08-03T09:28:57.226Z,101190.44
2022-08-03T09:30:34.473Z,101185.16
2022-08-03T09:32:07.105Z,101196.34
2022-08-03T09:33:47.809Z,101194.88
2022-08-03T09:35:51.588Z,101196.91
2022-08-03T09:37:19.843Z,101191.16
2022-08-03T09:39:04.415Z,101199.59
2022-08-03T09:40:37.729Z,101196.72
2022-08-03T09:42:10.863Z,101188.94
2022-08-03T09:43:47.161Z,101193.50
2022-08-03T09:45:26.810Z,101191.09
2022-08-03T09:46:58.582Z,101190.47
2022-08-03T09:48:31.972Z,101185.53
2022-08-03T09:50:05.889Z,101188.25
2022-08-03T09:52:37.818Z,101189.13
2022-08-03T09:53:30.031Z,101185.72
2022-08-03T09:55:02.883Z,101183.19
2022-08-03T09:56:41.538Z,101190.78
2022-08-03T09:58:14.289Z,101180.97
2022-08-03T09:59:46.106Z,101186.03
2022-08-03T10:01:24.036Z,101182.81
2022-08-03T10:03:04.664Z,101182.81
2022-08-03T10:04:47.384Z,101179.59
2022-08-03T10:06:20.302Z,101184.34
2022-08-03T10:07:52.363Z,101182.50
2022-08-03T10:09:24.069Z,101179.44
2022-08-03T10:10:57.867Z,101178.25
2022-08-03T10:12:31.319Z,101178.41
2022-08-03T10:14:04.900Z,101176.69
2022-08-03T10:16:23.606Z,101174.00
2022-08-03T10:17:28.484Z,101167.22
2022-08-03T10:19:00.299Z,101172.97
2022-08-03T10:20:36.479Z,101174.00
2022-08-03T10:22:12.258Z,101168.56
2022-08-03T10:23:44.312Z,101168.91
2022-08-03T10:25:17.285Z,101171.97
2022-08-03T10:26:50.716Z,101166.19
2022-08-03T10:28:24.938Z,101163.50
2022-08-03T10:30:02.902Z,101163.69
2022-08-03T10:31:39.692Z,101164.84
2022-08-03T10:33:51.013Z,101161.09
2022-08-03T10:35:21.858Z,101151.28
2022-08-03T10:36:57.156Z,101144.53
2022-08-03T10:38:32.817Z,101154.53
2022-08-03T10:40:08.346Z,101153.19
2022-08-03T10:41:42.560Z,101148.59
2022-08-03T10:43:19.887Z,101146.53
2022-08-03T10:45:03.749Z,101143.13
2022-08-03T10:46:44.157Z,101142.59
2022-08-03T10:48:17.962Z,101142.28
2022-08-03T10:49:50.440Z,101138.72
2022-08-03T10:51:23.148Z,101138.69
2022-08-03T10:52:56.396Z,101146.00
2022-08-03T10:54:58.207Z,101131.25
2022-08-03T10:56:58.509Z,101143.09
2022-08-03T10:58:57.105Z,101130.88
2022-08-03T11:00:49.843Z,101123.75
2022-08-03T11:02:22.353Z,101133.59
2022-08-03T11:04:17.190Z,101130.75
2022-08-03T11:05:49.517Z,101129.84
2022-08-03T11:07:23.522Z,101124.09
2022-08-03T11:09:17.216Z,101118.81
2022-08-03T11:10:49.890Z,101119.44
2022-08-03T11:12:28.480Z,101125.19
2022-08-03T11:14:07.563Z,101119.22
2022-08-03T11:15:43.478Z,101123.63
2022-08-03T11:17:15.392Z,101123.09
2022-08-03T11:18:56.314Z,101118.16
2022-08-03T11:20:46.833Z,101120.91
2022-08-03T11:22:20.257Z,101115.13
2022-08-03T11:24:04.285Z,101117.31
2022-08-03T11:26:25.721Z,101110.53
2022-08-03T11:28:28.595Z,101111.03
2022-08-03T11:30:04.680Z,101113.94
2022-08-03T11:31:50.255Z,101116.13
2022-08-03T11:33:32.051Z,101114.41
2022-08-03T11:35:08.584Z,101109.47
2022-08-03T11:37:17.928Z,101107.78
2022-08-03T11:39:13.553Z,101106.13
2022-08-03T11:40:50.553Z,101109.38
2022-08-03T11:42:43.910Z,101111.78
2022-08-03T11:44:39.932Z,101104.16
2022-08-03T11:46:29.564Z,101113.25
2022-08-03T11:48:15.729Z,101106.28
2022-08-03T11:49:48.458Z,101113.56
2022-08-03T11:51:22.706Z,101108.44
2022-08-03T11:52:54.872Z,101110.44
2022-08-03T11:54:26.634Z,101108.56
2022-08-03T11:55:59.833Z,101108.19
2022-08-03T11:59:16.850Z,101099.53
2022-08-03T11:59:32.465Z,101099.63
2022-08-03T12:01:05.174Z,101104.88
2022-08-03T12:02:36.899Z,101110.63
2022-08-03T12:04:11.672Z,101101.28
2022-08-03T12:05:51.842Z,101105.97
2022-08-03T12:08:03.554Z,101105.63
2022-08-03T12:09:17.049Z,101106.47
2022-08-03T12:10:53.862Z,101097.94
2022-08-03T12:12:25.598Z,101098.63
2022-08-03T12:14:48.789Z,101099.13
2022-08-03T12:15:53.953Z,101103.66
2022-08-03T12:17:33.247Z,101097.31
2022-08-03T12:19:06.810Z,101095.88
2022-08-03T12:20:41.300Z,101092.81
2022-08-03T12:22:13.656Z,101096.50
2022-08-03T12:23:45.395Z,101092.00
2022-08-03T12:25:39.539Z,101095.19
2022-08-03T12:27:11.749Z,101091.94
2022-08-03T12:28:49.849Z,101092.00
2022-08-03T12:30:23.607Z,101084.88
2022-08-03T12:31:56.049Z,101090.97
2022-08-03T12:33:28.724Z,101082.44
2022-08-03T12:35:04.989Z,101084.13
2022-08-03T12:36:39.074Z,101077.09
2022-08-03T12:38:12.334Z,101077.22
2022-08-03T12:40:02.543Z,101078.16
2022-08-03T12:41:40.733Z,101087.28
2022-08-03T12:43:13.221Z,101087.66
2022-08-03T12:44:46.225Z,101089.66
2022-08-03T12:46:19.616Z,101097.13
2022-08-03T12:47:55.533Z,101088.56
2022-08-03T12:49:28.229Z,101089.78
2022-08-03T12:51:08.864Z,101083.53
2022-08-03T12:52:45.508Z,101091.94
2022-08-03T12:54:24.813Z,101085.97
2022-08-03T12:56:05.182Z,101077.44
2022-08-03T12:57:41.311Z,101088.44
2022-08-03T12:59:32.227Z,101087.44
2022-08-03T13:01:09.480Z,101083.94
2022-08-03T13:02:46.490Z,101086.09
2022-08-03T13:04:26.459Z,101087.16
2022-08-03T13:06:01.018Z,101085.69
2022-08-03T13:07:41.797Z,101079.63
2022-08-03T13:09:19.057Z,101071.63
2022-08-03T13:10:51.568Z,101071.66
2022-08-03T13:12:25.189Z,101063.88
2022-08-03T13:13:56.961Z,101074.59
2022-08-03T13:15:29.806Z,101068.91
2022-08-03T13:17:10.975Z,101072.47
2022-08-03T13:18:42.857Z,101063.25
2022-08-03T13:20:14.551Z,101067.22
2022-08-03T13:21:53.495Z,101065.94
2022-08-03T13:23:35.575Z,101066.16
2022-08-03T13:25:09.360Z,101065.09
2022-08-03T13:26:41.082Z,101058.59
2022-08-03T13:28:14.438Z,101065.13
2022-08-03T13:29:46.498Z,101066.16
2022-08-03T13:31:18.208Z,101063.59
2022-08-03T13:32:51.631Z,101066.88
2022-08-03T13:34:24.136Z,101070.56
2022-08-03T13:35:56.229Z,101066.75
2022-08-03T13:37:28.170Z,101066.63
2022-08-03T13:38:59.907Z,101062.56
2022-08-03T13:40:41.815Z,101063.38
2022-08-03T13:42:13.765Z,101067.66
2022-08-03T13:43:45.470Z,101057.03
2022-08-03T13:45:18.258Z,101069.63
2022-08-03T13:46:50.444Z,101070.59
2022-08-03T13:48:37.449Z,101060.22
2022-08-03T13:50:09.598Z,101052.13
2022-08-03T13:51:41.654Z,101058.09
2022-08-03T13:53:13.400Z,101050.72
2022-08-03T13:54:47.153Z,101055.00
2022-08-03T13:56:20.478Z,101045.31
2022-08-03T13:58:02.919Z,101048.66
2022-08-03T13:59:38.661Z,101040.41
2022-08-03T14:01:10.566Z,101046.91
2022-08-03T14:02:42.518Z,101040.88
2022-08-03T14:04:21.772Z,101032.63
2022-08-03T14:05:54.166Z,101040.63
2022-08-03T14:07:25.895Z,101041.41
2022-08-03T14:09:00.548Z,101034.75
2022-08-03T14:10:34.119Z,101033.53
2022-08-03T14:12:08.942Z,101029.59
2022-08-03T14:13:41.544Z,101030.59
2022-08-03T14:15:13.410Z,101027.78
2022-08-03T14:16:45.204Z,101024.44
2022-08-03T14:18:27.850Z,101021.38
2022-08-03T14:20:01.385Z,101031.66
2022-08-03T14:21:35.122Z,101029.88
2022-08-03T14:23:07.260Z,101025.78
2022-08-03T14:24:38.984Z,101029.44
2022-08-03T14:26:12.005Z,101027.94
2022-08-03T14:27:45.175Z,101023.69
2022-08-03T14:29:16.997Z,101020.06
2022-08-03T14:30:49.146Z,101023.47
2022-08-03T14:32:20.931Z,101023.78
2022-08-03T14:33:52.775Z,101019.94
2022-08-03T14:35:24.630Z,101024.63
2022-08-03T14:36:56.442Z,101023.34
2022-08-03T14:38:28.283Z,101020.28
2022-08-03T14:40:00.787Z,101012.28
2022-08-03T14:41:32.914Z,101008.88
2022-08-03T14:43:06.073Z,101009.78
2022-08-03T14:44:37.718Z,101012.53
2022-08-03T14:46:09.631Z,101011.09
2022-08-03T14:50:29.741Z,101007.88
2022-08-03T14:50:34.187Z,101005.31
2022-08-03T14:51:26.827Z,100999.84
2022-08-03T14:53:04.905Z,101003.72
2022-08-03T14:54:37.082Z,101005.72
2022-08-03T14:56:10.643Z,101008.31
2022-08-03T14:57:42.643Z,101008.59
2022-08-03T14:59:15.763Z,101003.44
2022-08-03T15:00:47.582Z,101004.06
2022-08-03T15:02:23.862Z,101004.81
2022-08-03T15:03:56.006Z,101000.97
2022-08-03T15:05:27.700Z,100996.66
2022-08-03T15:06:59.618Z,101000.47
2022-08-03T15:08:31.328Z,100999.13
2022-08-03T15:10:03.358Z,100990.53
2022-08-03T15:11:35.454Z,100986.84
2022-08-03T15:13:07.173Z,100985.84
2022-08-03T15:14:40.360Z,100990.63
2022-08-03T15:16:12.154Z,100982.91
2022-08-03T15:17:59.711Z,100984.09
2022-08-03T15:20:01.595Z,100992.28
2022-08-03T15:21:46.124Z,100994.44
2022-08-03T15:23:16.820Z,100999.88
2022-08-03T15:24:48.645Z,100989.91
2022-08-03T15:26:30.331Z,100986.97
2022-08-03T15:28:05.854Z,100982.69
2022-08-03T15:30:04.967Z,100979.56
2022-08-03T15:31:31.031Z,100983.50
2022-08-03T15:33:02.821Z,100972.84
2022-08-03T15:34:34.504Z,100974.59
2022-08-03T15:36:06.588Z,100969.75
2022-08-03T15:37:38.302Z,100981.63
2022-08-03T15:39:10.043Z,100975.72
2022-08-03T15:40:41.964Z,100982.84
2022-08-03T15:42:13.686Z,100977.38
2022-08-03T15:43:47.601Z,100981.78
2022-08-03T15:45:20.341Z,100967.25
2022-08-03T15:46:53.852Z,100976.78
2022-08-03T15:48:26.603Z,100972.59
2022-08-03T15:49:58.452Z,100974.59
2022-08-03T15:51:30.349Z,100963.22
2022-08-03T15:53:02.118Z,100962.00
2022-08-03T15:54:33.823Z,100966.19
2022-08-03T15:56:13.246Z,100961.81
2022-08-03T15:59:11.278Z,100958.34
2022-08-03T15:59:40.398Z,100967.50
2022-08-03T16:01:16.407Z,100961.88
2022-08-03T16:02:55.763Z,100957.81
2022-08-03T16:04:28.647Z,100964.97
2022-08-03T16:06:01.448Z,100960.84
2022-08-03T16:08:03.250Z,100957.03
2022-08-03T16:09:42.898Z,100954.72
2022-08-03T16:11:16.122Z,100962.50
2022-08-03T16:12:48.543Z,100952.75
2022-08-03T16:14:33.357Z,100960.19
2022-08-03T16:16:07.502Z,100962.38
2022-08-03T16:17:40.041Z,100962.31
2022-08-03T16:19:13.061Z,100954.66
2022-08-03T16:20:45.162Z,100959.06
2022-08-03T16:22:22.176Z,100954.03
2022-08-03T16:23:54.817Z,100954.28
2022-08-03T16:25:27.877Z,100956.84
2022-08-03T16:27:00.494Z,100952.44
2022-08-03T16:28:34.085Z,100957.31
2022-08-03T16:30:07.837Z,100949.13
2022-08-03T16:31:39.738Z,100945.44
2022-08-03T16:33:23.089Z,100945.13
2022-08-03T16:34:56.192Z,100947.22
2022-08-03T16:36:27.902Z,100944.72
2022-08-03T16:38:10.416Z,100951.13
2022-08-03T16:39:43.303Z,100948.03
2022-08-03T16:41:15.028Z,100950.66
2022-08-03T16:42:47.180Z,100946.03
2022-08-03T16:44:19.350Z,100942.03
2022-08-03T16:45:51.281Z,100946.66
2022-08-03T16:47:23.165Z,100946.22
2022-08-03T16:48:54.969Z,100943.75
2022-08-03T16:50:28.215Z,100945.63
2022-08-03T16:51:59.947Z,100935.53
2022-08-03T16:53:33.629Z,100937.84
2022-08-03T16:55:48.952Z,100943.13
2022-08-03T16:57:16.442Z,100937.66
2022-08-03T16:59:08.056Z,100936.19
2022-08-03T17:00:41.581Z,100942.72
2022-08-03T17:02:21.691Z,100946.50
2022-08-03T17:04:03.144Z,100946.91
2022-08-03T17:05:47.287Z,100941.22
2022-08-03T17:07:20.699Z,100940.41
2022-08-03T17:08:55.409Z,100940.78
2022-08-03T17:10:29.949Z,100948.59
2022-08-03T17:12:01.691Z,100936.22
2022-08-03T17:13:39.732Z,100932.38
2022-08-03T17:15:12.053Z,100944.56
2022-08-03T17:16:52.899Z,100941.19
2022-08-03T17:18:26.767Z,100936.50
2022-08-03T17:19:59.898Z,100934.19
2022-08-03T17:21:37.536Z,100934.41
2022-08-03T17:23:34.325Z,100936.34
2022-08-03T17:25:07.661Z,100937.75
2022-08-03T17:26:43.557Z,100931.03
2022-08-03T17:28:49.758Z,100937.53
2022-08-03T17:30:12.189Z,100933.56
2022-08-03T17:31:49.045Z,100928.69
2022-08-03T17:33:21.486Z,100929.97
2022-08-03T17:34:55.321Z,100929.34
2022-08-03T17:37:01.691Z,100928.06
2022-08-03T17:38:23.064Z,100930.97
2022-08-03T17:39:59.045Z,100932.84
2022-08-03T17:41:37.841Z,100929.69
2022-08-03T17:44:13.285Z,100933.44
2022-08-03T17:45:15.839Z,100935.72
2022-08-03T17:46:47.880Z,100929.41
2022-08-03T17:48:20.737Z,100926.19
2022-08-03T17:49:56.981Z,100929.94
2022-08-03T17:51:33.315Z,100928.31
2022-08-03T17:53:15.451Z,100935.66
2022-08-03T17:55:57.227Z,100931.25
2022-08-03T17:57:06.319Z,100942.59
2022-08-03T17:59:01.532Z,100934.78
2022-08-03T18:01:01.849Z,100945.06
2022-08-03T18:03:03.253Z,100939.16
2022-08-03T18:04:41.748Z,100943.56
2022-08-03T18:06:13.521Z,100941.63
2022-08-03T18:08:02.577Z,100939.94
2022-08-03T18:10:03.451Z,100939.03
2022-08-03T18:11:37.095Z,100940.88
2022-08-03T18:13:15.157Z,100935.59
2022-08-03T18:14:57.521Z,100944.38
2022-08-03T18:16:38.093Z,100931.97
2022-08-03T18:18:12.569Z,100944.03
2022-08-03T18:20:01.967Z,100937.72
2022-08-03T18:22:03.515Z,100940.38